sensor_id;sensor_type;location;lat;lon;timestamp;temperature;humidity
22167;DHT22;11249;52.468;13.776;2022-12-18T00:02:14;-4.40;99.90
22167;DHT22;11249;52.468;13.776;2022-12-18T00:04:47;-4.40;99.90
22167;DHT22;11249;52.468;13.776;2022-12-18T00:07:14;-4.50;99.90
22167;DHT22;11249;52.468;13.776;2022-12-18T00:09:47;-4.50;99.90
22167;DHT22;11249;52.468;13.776;2022-12-18T00:12:27;-4.50;99.90
22167;DHT22;11249;52.468;13.776;2022-12-18T00:15:07;-4.50;99.90
22167;DHT22;11249;52.468;13.776;2022-12-18T00:17:40;-4.50;99.90
22167;DHT22;11249;52.468;13.776;2022-12-18T00:20:13;-4.50;99.90
22167;DHT22;11249;52.468;13.776;2022-12-18T00:22:40;-4.60;99.90
22167;DHT22;11249;52.468;13.776;2022-12-18T00:25:13;-4.50;99.90
22167;DHT22;11249;52.468;13.776;2022-12-18T00:27:46;-4.50;99.90
22167;DHT22;11249;52.468;13.776;2022-12-18T00:30:19;-4.40;99.90
22167;DHT22;11249;52.468;13.776;2022-12-18T00:32:52;-4.40;99.90
22167;DHT22;11249;52.468;13.776;2022-12-18T00:35:25;-4.40;99.90
22167;DHT22;11249;52.468;13.776;2022-12-18T00:37:52;-4.40;99.90
22167;DHT22;11249;52.468;13.776;2022-12-18T00:40:25;-4.40;99.90
22167;DHT22;11249;52.468;13.776;2022-12-18T00:42:52;-4.40;99.90
22167;DHT22;11249;52.468;13.776;2022-12-18T00:45:30;-4.40;99.90
22167;DHT22;11249;52.468;13.776;2022-12-18T00:48:03;-4.30;99.90
22167;DHT22;11249;52.468;13.776;2022-12-18T00:50:36;-4.40;99.90
22167;DHT22;11249;52.468;13.776;2022-12-18T00:53:03;-4.40;99.90
22167;DHT22;11249;52.468;13.776;2022-12-18T00:55:30;-4.40;99.90
22167;DHT22;11249;52.468;13.776;2022-12-18T00:58:03;-4.40;99.90
22167;DHT22;11249;52.468;13.776;2022-12-18T01:00:36;-4.50;99.90
22167;DHT22;11249;52.468;13.776;2022-12-18T01:03:05;-4.50;99.90
22167;DHT22;11249;52.468;13.776;2022-12-18T01:05:39;-4.50;99.90
22167;DHT22;11249;52.468;13.776;2022-12-18T01:08:13;-4.50;99.90
22167;DHT22;11249;52.468;13.776;2022-12-18T01:10:40;-4.50;99.90
22167;DHT22;11249;52.468;13.776;2022-12-18T01:13:21;-4.60;99.90
22167;DHT22;11249;52.468;13.776;2022-12-18T01:15:49;-4.60;99.90
22167;DHT22;11249;52.468;13.776;2022-12-18T01:18:22;-4.60;99.90
22167;DHT22;11249;52.468;13.776;2022-12-18T01:20:49;-4.60;99.90
22167;DHT22;11249;52.468;13.776;2022-12-18T01:23:22;-4.60;99.90
22167;DHT22;11249;52.468;13.776;2022-12-18T01:25:49;-4.60;99.90
22167;DHT22;11249;52.468;13.776;2022-12-18T01:28:22;-4.70;99.90
22167;DHT22;11249;52.468;13.776;2022-12-18T01:30:49;-4.70;99.90
22167;DHT22;11249;52.468;13.776;2022-12-18T01:33:22;-4.70;99.90
22167;DHT22;11249;52.468;13.776;2022-12-18T01:35:49;-4.60;99.90
22167;DHT22;11249;52.468;13.776;2022-12-18T01:38:22;-4.70;99.90
22167;DHT22;11249;52.468;13.776;2022-12-18T01:40:49;-4.70;99.90
22167;DHT22;11249;52.468;13.776;2022-12-18T01:43:22;-4.70;99.90
22167;DHT22;11249;52.468;13.776;2022-12-18T01:45:59;-4.70;99.90
22167;DHT22;11249;52.468;13.776;2022-12-18T01:48:26;-4.80;99.90
22167;DHT22;11249;52.468;13.776;2022-12-18T01:50:52;-4.80;99.90
22167;DHT22;11249;52.468;13.776;2022-12-18T01:53:26;-4.80;99.90
22167;DHT22;11249;52.468;13.776;2022-12-18T01:55:59;-4.80;99.90
22167;DHT22;11249;52.468;13.776;2022-12-18T01:59:02;-4.80;99.90
22167;DHT22;11249;52.468;13.776;2022-12-18T02:01:36;-4.80;99.90
22167;DHT22;11249;52.468;13.776;2022-12-18T02:04:30;-4.80;99.90
22167;DHT22;11249;52.468;13.776;2022-12-18T02:07:24;-4.70;99.90
22167;DHT22;11249;52.468;13.776;2022-12-18T02:10:08;-4.80;99.90
22167;DHT22;11249;52.468;13.776;2022-12-18T02:12:45;-4.70;99.90
22167;DHT22;11249;52.468;13.776;2022-12-18T02:15:32;-4.70;99.90
22167;DHT22;11249;52.468;13.776;2022-12-18T02:18:08;-4.70;99.90
22167;DHT22;11249;52.468;13.776;2022-12-18T02:21:00;-4.70;99.90
22167;DHT22;11249;52.468;13.776;2022-12-18T02:23:56;-4.70;99.90
22167;DHT22;11249;52.468;13.776;2022-12-18T02:26:42;-4.80;99.90
22167;DHT22;11249;52.468;13.776;2022-12-18T02:29:24;-4.80;99.90
22167;DHT22;11249;52.468;13.776;2022-12-18T02:32:01;-4.80;99.90
22167;DHT22;11249;52.468;13.776;2022-12-18T02:34:38;-4.80;99.90
22167;DHT22;11249;52.468;13.776;2022-12-18T02:37:10;-4.90;99.90
22167;DHT22;11249;52.468;13.776;2022-12-18T02:39:46;-4.90;99.90
22167;DHT22;11249;52.468;13.776;2022-12-18T02:42:14;-4.90;99.90
22167;DHT22;11249;52.468;13.776;2022-12-18T02:44:46;-4.90;99.90
22167;DHT22;11249;52.468;13.776;2022-12-18T02:47:24;-4.90;99.90
22167;DHT22;11249;52.468;13.776;2022-12-18T02:53:15;-4.80;99.90
22167;DHT22;11249;52.468;13.776;2022-12-18T02:56:07;-4.90;99.90
22167;DHT22;11249;52.468;13.776;2022-12-18T02:58:58;-4.80;99.90
22167;DHT22;11249;52.468;13.776;2022-12-18T03:01:55;-4.80;99.90
22167;DHT22;11249;52.468;13.776;2022-12-18T03:04:50;-4.80;99.90
22167;DHT22;11249;52.468;13.776;2022-12-18T03:07:53;-4.90;99.90
22167;DHT22;11249;52.468;13.776;2022-12-18T03:10:26;-4.90;99.90
22167;DHT22;11249;52.468;13.776;2022-12-18T03:13:04;-5.00;99.90
22167;DHT22;11249;52.468;13.776;2022-12-18T03:15:56;-4.90;99.90
22167;DHT22;11249;52.468;13.776;2022-12-18T03:18:47;-5.00;99.90
22167;DHT22;11249;52.468;13.776;2022-12-18T03:21:43;-4.90;99.90
22167;DHT22;11249;52.468;13.776;2022-12-18T03:24:11;-4.90;99.90
22167;DHT22;11249;52.468;13.776;2022-12-18T03:26:47;-4.90;99.90
22167;DHT22;11249;52.468;13.776;2022-12-18T03:29:32;-4.90;99.90
22167;DHT22;11249;52.468;13.776;2022-12-18T03:32:19;-4.90;99.90
22167;DHT22;11249;52.468;13.776;2022-12-18T03:34:49;-4.80;99.90
22167;DHT22;11249;52.468;13.776;2022-12-18T03:37:23;-4.90;99.90
22167;DHT22;11249;52.468;13.776;2022-12-18T03:39:56;-4.90;99.90
22167;DHT22;11249;52.468;13.776;2022-12-18T03:42:29;-4.90;99.90
22167;DHT22;11249;52.468;13.776;2022-12-18T03:45:09;-4.90;99.90
22167;DHT22;11249;52.468;13.776;2022-12-18T03:48:02;-4.90;99.90
22167;DHT22;11249;52.468;13.776;2022-12-18T03:50:58;-4.90;99.90
22167;DHT22;11249;52.468;13.776;2022-12-18T03:56:13;-5.00;99.90
22167;DHT22;11249;52.468;13.776;2022-12-18T03:58:49;-5.10;99.90
22167;DHT22;11249;52.468;13.776;2022-12-18T04:01:28;-5.10;99.90
22167;DHT22;11249;52.468;13.776;2022-12-18T04:03:56;-5.10;99.90
22167;DHT22;11249;52.468;13.776;2022-12-18T04:06:35;-5.10;99.90
22167;DHT22;11249;52.468;13.776;2022-12-18T04:09:08;-5.20;99.90
22167;DHT22;11249;52.468;13.776;2022-12-18T04:11:35;-5.20;99.90
22167;DHT22;11249;52.468;13.776;2022-12-18T04:14:08;-5.20;99.90
22167;DHT22;11249;52.468;13.776;2022-12-18T04:16:48;-5.20;99.90
22167;DHT22;11249;52.468;13.776;2022-12-18T04:19:21;-5.20;99.90
22167;DHT22;11249;52.468;13.776;2022-12-18T04:21:48;-5.30;99.90
22167;DHT22;11249;52.468;13.776;2022-12-18T04:24:21;-5.30;99.90
22167;DHT22;11249;52.468;13.776;2022-12-18T04:26:48;-5.30;99.90
22167;DHT22;11249;52.468;13.776;2022-12-18T04:29:21;-5.30;99.90
22167;DHT22;11249;52.468;13.776;2022-12-18T04:31:54;-5.30;99.90
22167;DHT22;11249;52.468;13.776;2022-12-18T04:34:28;-5.30;99.90
22167;DHT22;11249;52.468;13.776;2022-12-18T04:36:55;-5.30;99.90
22167;DHT22;11249;52.468;13.776;2022-12-18T04:39:22;-5.30;99.90
22167;DHT22;11249;52.468;13.776;2022-12-18T04:41:55;-5.30;99.90
22167;DHT22;11249;52.468;13.776;2022-12-18T04:44:22;-5.30;99.90
22167;DHT22;11249;52.468;13.776;2022-12-18T04:46:55;-5.30;99.90
22167;DHT22;11249;52.468;13.776;2022-12-18T04:49:22;-5.30;99.90
22167;DHT22;11249;52.468;13.776;2022-12-18T04:51:55;-5.30;99.90
22167;DHT22;11249;52.468;13.776;2022-12-18T04:54:22;-5.20;99.90
22167;DHT22;11249;52.468;13.776;2022-12-18T04:56:55;-5.20;99.90
22167;DHT22;11249;52.468;13.776;2022-12-18T04:59:22;-5.20;99.90
22167;DHT22;11249;52.468;13.776;2022-12-18T05:01:55;-5.20;99.90
22167;DHT22;11249;52.468;13.776;2022-12-18T05:04:22;-5.20;99.90
22167;DHT22;11249;52.468;13.776;2022-12-18T05:06:55;-5.20;99.90
22167;DHT22;11249;52.468;13.776;2022-12-18T05:09:22;-5.20;99.90
22167;DHT22;11249;52.468;13.776;2022-12-18T05:11:49;-5.20;99.90
22167;DHT22;11249;52.468;13.776;2022-12-18T05:14:29;-5.30;99.90
22167;DHT22;11249;52.468;13.776;2022-12-18T05:17:09;-5.30;99.90
22167;DHT22;11249;52.468;13.776;2022-12-18T05:19:42;-5.30;99.90
22167;DHT22;11249;52.468;13.776;2022-12-18T05:22:15;-5.30;99.90
22167;DHT22;11249;52.468;13.776;2022-12-18T05:24:42;-5.30;99.90
22167;DHT22;11249;52.468;13.776;2022-12-18T05:27:08;-5.40;99.90
22167;DHT22;11249;52.468;13.776;2022-12-18T05:29:41;-5.30;99.90
22167;DHT22;11249;52.468;13.776;2022-12-18T05:32:08;-5.30;99.90
22167;DHT22;11249;52.468;13.776;2022-12-18T05:34:34;-5.30;99.90
22167;DHT22;11249;52.468;13.776;2022-12-18T05:37:07;-5.30;99.90
22167;DHT22;11249;52.468;13.776;2022-12-18T05:39:34;-5.30;99.90
22167;DHT22;11249;52.468;13.776;2022-12-18T05:42:07;-5.30;99.90
22167;DHT22;11249;52.468;13.776;2022-12-18T05:44:34;-5.40;99.90
22167;DHT22;11249;52.468;13.776;2022-12-18T05:47:07;-5.40;99.90
22167;DHT22;11249;52.468;13.776;2022-12-18T05:49:40;-5.40;99.90
22167;DHT22;11249;52.468;13.776;2022-12-18T05:52:13;-5.50;99.90
22167;DHT22;11249;52.468;13.776;2022-12-18T05:54:46;-5.50;99.90
22167;DHT22;11249;52.468;13.776;2022-12-18T05:57:13;-5.50;99.90
22167;DHT22;11249;52.468;13.776;2022-12-18T05:59:46;-5.50;99.90
22167;DHT22;11249;52.468;13.776;2022-12-18T06:02:13;-5.50;99.90
22167;DHT22;11249;52.468;13.776;2022-12-18T06:04:46;-5.60;99.90
22167;DHT22;11249;52.468;13.776;2022-12-18T06:07:20;-5.60;99.90
22167;DHT22;11249;52.468;13.776;2022-12-18T06:09:47;-5.60;99.90
22167;DHT22;11249;52.468;13.776;2022-12-18T06:12:20;-5.60;99.90
22167;DHT22;11249;52.468;13.776;2022-12-18T06:14:54;-5.60;99.90
22167;DHT22;11249;52.468;13.776;2022-12-18T06:17:31;-5.50;99.90
22167;DHT22;11249;52.468;13.776;2022-12-18T06:19:58;-5.50;99.90
22167;DHT22;11249;52.468;13.776;2022-12-18T06:22:25;-5.50;99.90
22167;DHT22;11249;52.468;13.776;2022-12-18T06:24:59;-5.40;99.90
22167;DHT22;11249;52.468;13.776;2022-12-18T06:27:26;-5.40;99.90
22167;DHT22;11249;52.468;13.776;2022-12-18T06:30:00;-5.40;99.90
22167;DHT22;11249;52.468;13.776;2022-12-18T06:32:26;-5.40;99.90
22167;DHT22;11249;52.468;13.776;2022-12-18T06:35:00;-5.40;99.90
22167;DHT22;11249;52.468;13.776;2022-12-18T06:37:33;-5.30;99.90
22167;DHT22;11249;52.468;13.776;2022-12-18T06:40:00;-5.30;99.90
22167;DHT22;11249;52.468;13.776;2022-12-18T06:42:33;-5.30;99.90
22167;DHT22;11249;52.468;13.776;2022-12-18T06:45:00;-5.30;99.90
22167;DHT22;11249;52.468;13.776;2022-12-18T06:47:26;-5.20;99.90
22167;DHT22;11249;52.468;13.776;2022-12-18T06:49:59;-5.20;99.90
22167;DHT22;11249;52.468;13.776;2022-12-18T06:52:26;-5.20;99.90
22167;DHT22;11249;52.468;13.776;2022-12-18T06:54:59;-5.20;99.90
22167;DHT22;11249;52.468;13.776;2022-12-18T06:57:26;-5.20;99.90
22167;DHT22;11249;52.468;13.776;2022-12-18T06:59:59;-5.20;99.90
22167;DHT22;11249;52.468;13.776;2022-12-18T07:02:26;-5.20;99.90
22167;DHT22;11249;52.468;13.776;2022-12-18T07:05:00;-5.20;99.90
22167;DHT22;11249;52.468;13.776;2022-12-18T07:07:36;-5.20;99.90
22167;DHT22;11249;52.468;13.776;2022-12-18T07:10:09;-5.20;99.90
22167;DHT22;11249;52.468;13.776;2022-12-18T07:12:36;-5.20;99.90
22167;DHT22;11249;52.468;13.776;2022-12-18T07:15:23;-5.10;99.90
22167;DHT22;11249;52.468;13.776;2022-12-18T07:17:56;-5.20;99.90
22167;DHT22;11249;52.468;13.776;2022-12-18T07:20:23;-5.10;99.90
22167;DHT22;11249;52.468;13.776;2022-12-18T07:22:56;-5.10;99.90
22167;DHT22;11249;52.468;13.776;2022-12-18T07:25:29;-5.10;99.90
22167;DHT22;11249;52.468;13.776;2022-12-18T07:27:56;-5.10;99.90
22167;DHT22;11249;52.468;13.776;2022-12-18T07:30:29;-5.10;99.90
22167;DHT22;11249;52.468;13.776;2022-12-18T07:32:56;-5.10;99.90
22167;DHT22;11249;52.468;13.776;2022-12-18T07:35:23;-5.00;99.90
22167;DHT22;11249;52.468;13.776;2022-12-18T07:37:56;-5.10;99.90
22167;DHT22;11249;52.468;13.776;2022-12-18T07:40:23;-5.00;99.90
22167;DHT22;11249;52.468;13.776;2022-12-18T07:42:56;-5.00;99.90
22167;DHT22;11249;52.468;13.776;2022-12-18T07:45:23;-4.90;99.90
22167;DHT22;11249;52.468;13.776;2022-12-18T07:47:49;-4.90;99.90
22167;DHT22;11249;52.468;13.776;2022-12-18T07:50:22;-4.90;99.90
22167;DHT22;11249;52.468;13.776;2022-12-18T07:52:56;-4.90;99.90
22167;DHT22;11249;52.468;13.776;2022-12-18T07:55:23;-4.90;99.90
22167;DHT22;11249;52.468;13.776;2022-12-18T07:57:49;-4.90;99.90
22167;DHT22;11249;52.468;13.776;2022-12-18T08:00:26;-4.80;99.90
22167;DHT22;11249;52.468;13.776;2022-12-18T08:02:53;-4.80;99.90
22167;DHT22;11249;52.468;13.776;2022-12-18T08:05:20;-4.70;99.90
22167;DHT22;11249;52.468;13.776;2022-12-18T08:07:54;-4.70;99.90
22167;DHT22;11249;52.468;13.776;2022-12-18T08:10:27;-4.70;99.90
22167;DHT22;11249;52.468;13.776;2022-12-18T08:12:54;-4.60;99.90
22167;DHT22;11249;52.468;13.776;2022-12-18T08:15:41;-4.60;99.90
22167;DHT22;11249;52.468;13.776;2022-12-18T08:18:07;-4.60;99.90
22167;DHT22;11249;52.468;13.776;2022-12-18T08:20:44;-4.60;99.90
22167;DHT22;11249;52.468;13.776;2022-12-18T08:23:11;-4.50;99.90
22167;DHT22;11249;52.468;13.776;2022-12-18T08:25:44;-4.50;99.90
22167;DHT22;11249;52.468;13.776;2022-12-18T08:28:11;-4.40;99.90
22167;DHT22;11249;52.468;13.776;2022-12-18T08:30:37;-4.40;99.90
22167;DHT22;11249;52.468;13.776;2022-12-18T08:33:12;-4.40;99.90
22167;DHT22;11249;52.468;13.776;2022-12-18T08:35:38;-4.40;99.90
22167;DHT22;11249;52.468;13.776;2022-12-18T08:38:11;-4.40;99.90
22167;DHT22;11249;52.468;13.776;2022-12-18T08:41:11;-4.30;99.90
22167;DHT22;11249;52.468;13.776;2022-12-18T08:43:44;-4.30;99.90
22167;DHT22;11249;52.468;13.776;2022-12-18T08:46:36;-4.20;99.90
22167;DHT22;11249;52.468;13.776;2022-12-18T08:49:10;-4.20;99.90
22167;DHT22;11249;52.468;13.776;2022-12-18T08:51:38;-4.10;99.90
22167;DHT22;11249;52.468;13.776;2022-12-18T08:54:05;-4.00;99.90
22167;DHT22;11249;52.468;13.776;2022-12-18T08:56:38;-4.10;99.90
22167;DHT22;11249;52.468;13.776;2022-12-18T08:59:05;-4.10;99.90
22167;DHT22;11249;52.468;13.776;2022-12-18T09:01:46;-4.00;99.90
22167;DHT22;11249;52.468;13.776;2022-12-18T09:04:13;-4.00;99.90
22167;DHT22;11249;52.468;13.776;2022-12-18T09:06:47;-4.00;99.90
22167;DHT22;11249;52.468;13.776;2022-12-18T09:09:14;-3.90;99.90
22167;DHT22;11249;52.468;13.776;2022-12-18T09:11:47;-3.80;99.90
22167;DHT22;11249;52.468;13.776;2022-12-18T09:14:27;-3.80;99.90
22167;DHT22;11249;52.468;13.776;2022-12-18T09:17:00;-3.90;99.90
22167;DHT22;11249;52.468;13.776;2022-12-18T09:19:33;-3.80;99.90
22167;DHT22;11249;52.468;13.776;2022-12-18T09:22:06;-3.70;99.90
22167;DHT22;11249;52.468;13.776;2022-12-18T09:24:39;-3.70;99.90
22167;DHT22;11249;52.468;13.776;2022-12-18T09:27:12;-3.60;99.90
22167;DHT22;11249;52.468;13.776;2022-12-18T09:29:39;-3.70;99.90
22167;DHT22;11249;52.468;13.776;2022-12-18T09:32:05;-3.60;99.90
22167;DHT22;11249;52.468;13.776;2022-12-18T09:34:44;-3.60;99.90
22167;DHT22;11249;52.468;13.776;2022-12-18T09:37:17;-3.60;99.90
22167;DHT22;11249;52.468;13.776;2022-12-18T09:39:44;-3.50;99.90
22167;DHT22;11249;52.468;13.776;2022-12-18T09:42:21;-3.50;99.90
22167;DHT22;11249;52.468;13.776;2022-12-18T09:44:54;-3.60;99.90
22167;DHT22;11249;52.468;13.776;2022-12-18T09:47:31;-3.50;99.90
22167;DHT22;11249;52.468;13.776;2022-12-18T09:50:23;-3.50;99.90
22167;DHT22;11249;52.468;13.776;2022-12-18T09:53:02;-3.50;99.90
22167;DHT22;11249;52.468;13.776;2022-12-18T09:55:34;-3.40;99.90
22167;DHT22;11249;52.468;13.776;2022-12-18T10:00:35;-3.50;99.90
22167;DHT22;11249;52.468;13.776;2022-12-18T10:03:11;-3.50;99.90
22167;DHT22;11249;52.468;13.776;2022-12-18T10:06:18;-3.40;99.90
22167;DHT22;11249;52.468;13.776;2022-12-18T10:11:56;-3.40;99.90
22167;DHT22;11249;52.468;13.776;2022-12-18T10:14:41;-3.50;99.90
22167;DHT22;11249;52.468;13.776;2022-12-18T10:18:06;-3.50;99.90
22167;DHT22;11249;52.468;13.776;2022-12-18T10:20:46;-3.50;99.90
22167;DHT22;11249;52.468;13.776;2022-12-18T10:23:51;-3.50;99.90
22167;DHT22;11249;52.468;13.776;2022-12-18T10:26:14;-3.40;99.90
22167;DHT22;11249;52.468;13.776;2022-12-18T10:28:51;-3.30;99.90
22167;DHT22;11249;52.468;13.776;2022-12-18T10:31:31;-3.30;99.90
22167;DHT22;11249;52.468;13.776;2022-12-18T10:34:08;-3.20;99.90
22167;DHT22;11249;52.468;13.776;2022-12-18T10:36:42;-3.20;99.90
22167;DHT22;11249;52.468;13.776;2022-12-18T10:39:23;-3.30;99.90
22167;DHT22;11249;52.468;13.776;2022-12-18T10:42:10;-3.20;99.90
22167;DHT22;11249;52.468;13.776;2022-12-18T10:44:46;-3.10;99.90
22167;DHT22;11249;52.468;13.776;2022-12-18T10:47:34;-3.10;99.90
22167;DHT22;11249;52.468;13.776;2022-12-18T10:50:01;-3.10;99.90
22167;DHT22;11249;52.468;13.776;2022-12-18T10:52:27;-3.10;99.90
22167;DHT22;11249;52.468;13.776;2022-12-18T10:55:16;-3.00;99.90
22167;DHT22;11249;52.468;13.776;2022-12-18T10:57:43;-3.00;99.90
22167;DHT22;11249;52.468;13.776;2022-12-18T11:02:58;-3.00;99.90
22167;DHT22;11249;52.468;13.776;2022-12-18T11:05:34;-3.00;99.90
22167;DHT22;11249;52.468;13.776;2022-12-18T11:08:20;-3.00;99.90
22167;DHT22;11249;52.468;13.776;2022-12-18T11:10:49;-3.00;99.90
22167;DHT22;11249;52.468;13.776;2022-12-18T11:13:24;-3.00;99.90
22167;DHT22;11249;52.468;13.776;2022-12-18T11:16:05;-3.00;99.90
22167;DHT22;11249;52.468;13.776;2022-12-18T11:18:38;-2.90;99.90
22167;DHT22;11249;52.468;13.776;2022-12-18T11:21:06;-3.10;99.90
22167;DHT22;11249;52.468;13.776;2022-12-18T11:23:34;-3.00;99.90
22167;DHT22;11249;52.468;13.776;2022-12-18T11:26:08;-3.00;99.90
22167;DHT22;11249;52.468;13.776;2022-12-18T11:28:41;-2.90;99.90
22167;DHT22;11249;52.468;13.776;2022-12-18T11:31:21;-2.90;99.90
22167;DHT22;11249;52.468;13.776;2022-12-18T11:33:56;-2.90;99.90
22167;DHT22;11249;52.468;13.776;2022-12-18T11:36:50;-2.90;99.90
22167;DHT22;11249;52.468;13.776;2022-12-18T11:39:39;-2.90;99.90
22167;DHT22;11249;52.468;13.776;2022-12-18T11:42:22;-2.80;99.90
22167;DHT22;11249;52.468;13.776;2022-12-18T11:45:00;-2.80;99.90
22167;DHT22;11249;52.468;13.776;2022-12-18T11:47:56;-2.80;99.90
22167;DHT22;11249;52.468;13.776;2022-12-18T11:52:59;-2.80;99.90
22167;DHT22;11249;52.468;13.776;2022-12-18T11:55:57;-2.80;99.90
22167;DHT22;11249;52.468;13.776;2022-12-18T12:04:50;-2.80;99.90
22167;DHT22;11249;52.468;13.776;2022-12-18T12:07:47;-2.80;99.90
22167;DHT22;11249;52.468;13.776;2022-12-18T12:16:18;-2.80;99.90
22167;DHT22;11249;52.468;13.776;2022-12-18T12:21:42;-2.60;99.90
22167;DHT22;11249;52.468;13.776;2022-12-18T12:40:46;-2.60;99.90
22167;DHT22;11249;52.468;13.776;2022-12-18T12:43:41;-2.50;99.90
22167;DHT22;11249;52.468;13.776;2022-12-18T12:46:17;-2.50;99.90
22167;DHT22;11249;52.468;13.776;2022-12-18T12:48:58;-2.60;99.90
22167;DHT22;11249;52.468;13.776;2022-12-18T12:51:35;-2.60;99.90
22167;DHT22;11249;52.468;13.776;2022-12-18T12:54:19;-2.60;99.90
22167;DHT22;11249;52.468;13.776;2022-12-18T12:57:01;-2.60;99.90
22167;DHT22;11249;52.468;13.776;2022-12-18T12:59:51;-2.60;99.90
22167;DHT22;11249;52.468;13.776;2022-12-18T13:05:39;-2.70;99.90
22167;DHT22;11249;52.468;13.776;2022-12-18T13:08:25;-2.70;99.90
22167;DHT22;11249;52.468;13.776;2022-12-18T13:10:58;-2.60;99.90
22167;DHT22;11249;52.468;13.776;2022-12-18T13:13:55;-2.70;99.90
22167;DHT22;11249;52.468;13.776;2022-12-18T13:16:29;-2.60;99.90
22167;DHT22;11249;52.468;13.776;2022-12-18T13:19:02;-2.60;99.90
22167;DHT22;11249;52.468;13.776;2022-12-18T13:21:36;-2.60;99.90
22167;DHT22;11249;52.468;13.776;2022-12-18T13:24:22;-2.60;99.90
22167;DHT22;11249;52.468;13.776;2022-12-18T13:26:56;-2.60;99.90
22167;DHT22;11249;52.468;13.776;2022-12-18T13:29:43;-2.70;99.90
22167;DHT22;11249;52.468;13.776;2022-12-18T13:32:25;-2.70;99.90
22167;DHT22;11249;52.468;13.776;2022-12-18T13:38:23;-2.60;99.90
22167;DHT22;11249;52.468;13.776;2022-12-18T13:41:24;-2.60;99.90
22167;DHT22;11249;52.468;13.776;2022-12-18T13:44:25;-2.60;99.90
22167;DHT22;11249;52.468;13.776;2022-12-18T13:46:52;-2.60;99.90
22167;DHT22;11249;52.468;13.776;2022-12-18T13:49:36;-2.60;99.90
22167;DHT22;11249;52.468;13.776;2022-12-18T13:52:20;-2.60;99.90
22167;DHT22;11249;52.468;13.776;2022-12-18T13:54:56;-2.70;99.90
22167;DHT22;11249;52.468;13.776;2022-12-18T13:57:34;-2.70;99.90
22167;DHT22;11249;52.468;13.776;2022-12-18T14:02:50;-2.60;99.90
22167;DHT22;11249;52.468;13.776;2022-12-18T14:05:33;-2.60;99.90
22167;DHT22;11249;52.468;13.776;2022-12-18T14:08:05;-2.70;99.90
22167;DHT22;11249;52.468;13.776;2022-12-18T14:10:42;-2.70;99.90
22167;DHT22;11249;52.468;13.776;2022-12-18T14:13:24;-2.70;99.90
22167;DHT22;11249;52.468;13.776;2022-12-18T14:16:01;-2.70;99.90
22167;DHT22;11249;52.468;13.776;2022-12-18T14:18:50;-2.80;99.90
22167;DHT22;11249;52.468;13.776;2022-12-18T14:21:38;-2.80;99.90
22167;DHT22;11249;52.468;13.776;2022-12-18T14:26:46;-2.90;99.90
22167;DHT22;11249;52.468;13.776;2022-12-18T14:29:26;-2.90;99.90
22167;DHT22;11249;52.468;13.776;2022-12-18T14:32:07;-3.00;99.90
22167;DHT22;11249;52.468;13.776;2022-12-18T14:34:44;-3.00;99.90
22167;DHT22;11249;52.468;13.776;2022-12-18T14:37:22;-3.00;99.90
22167;DHT22;11249;52.468;13.776;2022-12-18T14:40:00;-2.90;99.90
22167;DHT22;11249;52.468;13.776;2022-12-18T14:42:37;-3.00;99.90
22167;DHT22;11249;52.468;13.776;2022-12-18T14:45:32;-3.00;99.90
22167;DHT22;11249;52.468;13.776;2022-12-18T14:50:40;-2.90;99.90
22167;DHT22;11249;52.468;13.776;2022-12-18T14:53:39;-2.90;99.90
22167;DHT22;11249;52.468;13.776;2022-12-18T14:56:18;-2.90;99.90
22167;DHT22;11249;52.468;13.776;2022-12-18T14:59:23;-2.90;99.90
22167;DHT22;11249;52.468;13.776;2022-12-18T15:02:04;-2.90;99.90
22167;DHT22;11249;52.468;13.776;2022-12-18T15:04:42;-2.90;99.90
22167;DHT22;11249;52.468;13.776;2022-12-18T15:07:19;-2.90;99.90
22167;DHT22;11249;52.468;13.776;2022-12-18T15:10:14;-2.90;99.90
22167;DHT22;11249;52.468;13.776;2022-12-18T15:18:30;-3.10;99.90
22167;DHT22;11249;52.468;13.776;2022-12-18T15:21:10;-3.10;99.90
22167;DHT22;11249;52.468;13.776;2022-12-18T15:26:18;-3.10;99.90
22167;DHT22;11249;52.468;13.776;2022-12-18T15:28:48;-3.10;99.90
22167;DHT22;11249;52.468;13.776;2022-12-18T15:36:20;-3.10;99.90
22167;DHT22;11249;52.468;13.776;2022-12-18T15:38:55;-3.20;99.90
22167;DHT22;11249;52.468;13.776;2022-12-18T15:41:35;-3.20;99.90
22167;DHT22;11249;52.468;13.776;2022-12-18T15:44:23;-3.20;99.90
22167;DHT22;11249;52.468;13.776;2022-12-18T15:46:50;-3.30;99.90
22167;DHT22;11249;52.468;13.776;2022-12-18T15:49:23;-3.30;99.90
22167;DHT22;11249;52.468;13.776;2022-12-18T15:51:53;-3.30;99.90
22167;DHT22;11249;52.468;13.776;2022-12-18T15:54:27;-3.30;99.90
22167;DHT22;11249;52.468;13.776;2022-12-18T15:57:13;-3.40;99.90
22167;DHT22;11249;52.468;13.776;2022-12-18T15:59:58;-3.40;99.90
22167;DHT22;11249;52.468;13.776;2022-12-18T16:02:25;-3.40;99.90
22167;DHT22;11249;52.468;13.776;2022-12-18T16:04:59;-3.30;99.90
22167;DHT22;11249;52.468;13.776;2022-12-18T16:07:28;-3.30;99.90
22167;DHT22;11249;52.468;13.776;2022-12-18T16:10:02;-3.30;99.90
22167;DHT22;11249;52.468;13.776;2022-12-18T16:12:37;-3.30;99.90
22167;DHT22;11249;52.468;13.776;2022-12-18T16:15:06;-3.30;99.90
22167;DHT22;11249;52.468;13.776;2022-12-18T16:17:57;-3.30;99.90
22167;DHT22;11249;52.468;13.776;2022-12-18T16:20:23;-3.30;99.90
22167;DHT22;11249;52.468;13.776;2022-12-18T16:22:57;-3.30;99.90
22167;DHT22;11249;52.468;13.776;2022-12-18T16:25:26;-3.40;99.90
22167;DHT22;11249;52.468;13.776;2022-12-18T16:27:54;-3.40;99.90
22167;DHT22;11249;52.468;13.776;2022-12-18T16:30:32;-3.40;99.90
22167;DHT22;11249;52.468;13.776;2022-12-18T16:33:05;-3.40;99.90
22167;DHT22;11249;52.468;13.776;2022-12-18T16:35:33;-3.30;99.90
22167;DHT22;11249;52.468;13.776;2022-12-18T16:38:06;-3.30;99.90
22167;DHT22;11249;52.468;13.776;2022-12-18T16:40:39;-3.40;99.90
22167;DHT22;11249;52.468;13.776;2022-12-18T16:43:26;-3.40;99.90
22167;DHT22;11249;52.468;13.776;2022-12-18T16:45:59;-3.40;99.90
22167;DHT22;11249;52.468;13.776;2022-12-18T16:48:32;-3.40;99.90
22167;DHT22;11249;52.468;13.776;2022-12-18T16:51:04;-3.40;99.90
22167;DHT22;11249;52.468;13.776;2022-12-18T16:53:37;-3.40;99.90
22167;DHT22;11249;52.468;13.776;2022-12-18T16:56:05;-3.40;99.90
22167;DHT22;11249;52.468;13.776;2022-12-18T16:58:32;-3.50;99.90
22167;DHT22;11249;52.468;13.776;2022-12-18T17:01:10;-3.50;99.90
22167;DHT22;11249;52.468;13.776;2022-12-18T17:03:43;-3.50;99.90
22167;DHT22;11249;52.468;13.776;2022-12-18T17:06:12;-3.50;99.90
22167;DHT22;11249;52.468;13.776;2022-12-18T17:08:39;-3.60;99.90
22167;DHT22;11249;52.468;13.776;2022-12-18T17:11:12;-3.60;99.90
22167;DHT22;11249;52.468;13.776;2022-12-18T17:13:45;-3.60;99.90
22167;DHT22;11249;52.468;13.776;2022-12-18T17:16:25;-3.70;99.90
22167;DHT22;11249;52.468;13.776;2022-12-18T17:18:59;-3.70;99.90
22167;DHT22;11249;52.468;13.776;2022-12-18T17:21:26;-3.80;99.90
22167;DHT22;11249;52.468;13.776;2022-12-18T17:23:59;-3.80;99.90